»·PEaware :: N5002T KBUR-KOXR

N5002T :: KBUR-KOXR

FLIGHT INFORMATION

Flight Status: Arrived
Operator: Privately registered:
United States
More flights under this callsign
Pilot: Hunter M. (19355)
Aircraft: CESSNA 172 SKYHAWK
(C172)
More flights by this aircraft type
Origin: KBUR Bob Hope-Burbank
United States
Destination: KOXR Oxnard
United States
More flights between these airports :: More routes between these airports
Route: +VNY3 FIM
File this flight plan on PilotEdge
Remarks:
Altitude:
(Current/Filed)
6,000ft
Speed:
(Current/Filed)
118kts
Departed: 21-Jan-19 10:41 AM
Arrived: 21-Jan-19 11:21 AM
Distance/Time
Traveled:
42nm/0:39
Distance/Time
To Go:
Arrived

Flight Plot

Page will automatically refresh every two minutes.

Flight plan parsing failed; only flown route is shown


Map Options




Map Legend


Flown Route
Filed Route
Departure Airport
Arrival Airport
Navaid (VOR, NDB)
Fix

Horizontal Profiles

Position Reports

Time Latitude Longitude Heading Altitude Ground
Speed
21-Jan-19 10:17 34.195959 -118.366900 181 781ft 0kts
21-Jan-19 10:18 34.195958 -118.366900 181 781ft 0kts
21-Jan-19 10:19 34.195957 -118.366900 181 781ft 0kts
21-Jan-19 10:20 34.195956 -118.366900 181 781ft 0kts
21-Jan-19 10:21 34.195955 -118.366900 181 781ft 0kts
21-Jan-19 10:22 34.195954 -118.366900 181 781ft 0kts
21-Jan-19 10:23 34.195953 -118.366900 181 781ft 0kts
21-Jan-19 10:24 34.195952 -118.366901 181 781ft 0kts
21-Jan-19 10:25 34.195951 -118.366901 181 781ft 0kts
21-Jan-19 10:26 34.195951 -118.366901 181 781ft 0kts
21-Jan-19 10:27 34.195950 -118.366901 181 781ft 0kts
21-Jan-19 10:28 34.195949 -118.366901 181 781ft 0kts
21-Jan-19 10:29 34.195948 -118.366901 181 781ft 0kts
21-Jan-19 10:30 34.195947 -118.366901 181 781ft 0kts
21-Jan-19 10:31 34.195946 -118.366901 181 781ft 0kts
21-Jan-19 10:32 34.195924 -118.366900 177 781ft 3kts
21-Jan-19 10:33 34.196730 -118.365639 86 781ft 4kts
21-Jan-19 10:34 34.196669 -118.362209 93 781ft 12kts
21-Jan-19 10:35 34.196592 -118.358066 98 781ft 12kts
21-Jan-19 10:36 34.195834 -118.357121 170 781ft 4kts
21-Jan-19 10:37 34.193998 -118.356219 118 781ft 0kts
21-Jan-19 10:38 34.193998 -118.356218 118 781ft 0kts
21-Jan-19 10:40 34.193958 -118.355562 46 781ft 8kts
21-Jan-19 10:41 34.209045 -118.359555 353 1019ft 93kts
21-Jan-19 10:42 34.227787 -118.373878 281 1865ft 93kts
21-Jan-19 10:43 34.233052 -118.409032 281 2690ft 106kts
21-Jan-19 10:44 34.237831 -118.438478 288 3524ft 76kts
21-Jan-19 10:45 34.244149 -118.461118 288 4299ft 72kts
21-Jan-19 10:46 34.250790 -118.485421 289 4945ft 79kts
21-Jan-19 10:47 34.257698 -118.510931 289 5550ft 80kts
21-Jan-19 10:48 34.264661 -118.536842 290 6022ft 85kts
21-Jan-19 10:49 34.272680 -118.566465 289 6004ft 96kts
21-Jan-19 10:50 34.280922 -118.597283 288 6000ft 96kts
21-Jan-19 10:51 34.289237 -118.628217 287 5979ft 95kts
21-Jan-19 10:52 34.297393 -118.658711 288 5986ft 95kts
21-Jan-19 10:53 34.305517 -118.689122 288 5989ft 94kts
21-Jan-19 10:54 34.313509 -118.719088 289 6001ft 93kts
21-Jan-19 10:55 34.321528 -118.749165 289 6006ft 94kts
21-Jan-19 10:56 34.329652 -118.779469 290 6006ft 94kts
21-Jan-19 10:57 34.337770 -118.809695 292 6006ft 94kts
21-Jan-19 10:57 34.344531 -118.834865 291 6000ft 94kts
21-Jan-19 10:59 34.353741 -118.870129 289 5995ft 93kts
21-Jan-19 11:00 34.347901 -118.899873 244 6002ft 99kts
21-Jan-19 11:01 34.331105 -118.921886 185 6023ft 107kts
21-Jan-19 11:01 34.305678 -118.922356 184 6000ft 110kts
21-Jan-19 11:03 34.269929 -118.922872 184 6002ft 109kts
21-Jan-19 11:04 34.239497 -118.923376 184 5976ft 110kts
21-Jan-19 11:04 34.217471 -118.913387 107 5478ft 114kts
21-Jan-19 11:05 34.221401 -118.877360 68 4869ft 109kts
21-Jan-19 11:07 34.208889 -118.861728 225 4142ft 97kts
21-Jan-19 11:07 34.199569 -118.885143 255 3637ft 95kts
21-Jan-19 11:08 34.196712 -118.914308 278 3388ft 77kts
21-Jan-19 11:10 34.199778 -118.944471 279 3411ft 78kts
21-Jan-19 11:11 34.199757 -118.970979 267 3410ft 80kts
21-Jan-19 11:12 34.197760 -118.997755 274 3254ft 77kts
21-Jan-19 11:12 34.198962 -119.018214 275 2882ft 69kts
21-Jan-19 11:13 34.199063 -119.040623 267 2684ft 67kts
21-Jan-19 11:14 34.199625 -119.063344 276 2390ft 71kts
21-Jan-19 11:15 34.200309 -119.087788 264 1978ft 73kts
21-Jan-19 11:16 34.200032 -119.113473 270 1522ft 76kts
21-Jan-19 11:17 34.200454 -119.138574 266 1172ft 80kts
21-Jan-19 11:18 34.200684 -119.163037 266 740ft 67kts
21-Jan-19 11:19 34.200631 -119.185194 268 367ft 65kts
21-Jan-19 11:20 34.200771 -119.206150 270 46ft 25kts
21-Jan-19 11:21 34.200080 -119.207074 162 46ft 0kts

Navigation Log

Ident Type
Flight plan parsing failed, navigation log unavailable